Shin-oh Maru — JG5594 — position and weather

sailwx.info

Track history (hours):
 
Tides and Currents Weather Stations Pressure Air Temp Water Temp Dewpoint Dewpoint Depression Visibility Wind Speed Wind Dir Waves Ship Positions

Shin-oh Maru

Last reported at 2017-Nov-17 17:33 UTC. Time now 2017-Nov-19 07:05 UTC.
Position N 34°52' E 140°02'.

Length 161 m; draft 7 m.

Type: Cargo ship. MMSI: 431100859.

Date/timePositionNaut miles runAvg speedWind from/ knotsBaromVisibWave heightAir tempDewpointWater temp
2017-Nov-17 17:33N 34°52' E 140°02'1019.9
2017-Nov-17 17:04N 34°51' E 139°51'220.0
2017-Nov-17 16:59N 34°51' E 139°49'919.7
2017-Nov-17 16:30N 34°59' E 139°42'1020.6
2017-Nov-17 16:00N 35°09' E 139°45'714.4
2017-Nov-17 15:30N 35°16' E 139°46'612.6
2017-Nov-17 15:00N 35°22' E 139°42'917.8
2017-Nov-17 14:30N 35°29' E 139°49'713.9
2017-Nov-17 14:00N 35°36' E 139°47'2 4.8
2017-Nov-17 13:29N 35°38' E 139°46'0 0.0
2017-Nov-17 08:21N 35°38' E 139°46'0 0.7
2017-Nov-17 08:00N 35°37' E 139°46'612.1
2017-Nov-17 07:30N 35°33' E 139°51'714.7
2017-Nov-17 07:01N 35°26' E 139°48'713.3
2017-Nov-17 06:30N 35°20' E 139°44'611.5
2017-Nov-17 06:00N 35°15' E 139°47'815.6
2017-Nov-17 05:30N 35°07' E 139°46'1019.7
2017-Nov-17 05:00N 34°57' E 139°43'  
2017-Nov-14 18:12N 34°54' E 140°05'419.9
2017-Nov-14 18:00N 34°53' E 140°00'1019.1
2017-Nov-14 17:29N 34°52' E 139°48'1019.7
2017-Nov-14 17:00N 35°00' E 139°43'1020.3
2017-Nov-14 16:30N 35°10' E 139°45'713.7
2017-Nov-14 16:00N 35°17' E 139°45'713.6
2017-Nov-14 15:31N 35°23' E 139°42'918.4
2017-Nov-14 15:01N 35°29' E 139°50'714.9
2017-Nov-14 14:30N 35°36' E 139°47'2 0.4
2017-Nov-14 09:37N 35°38' E 139°46'0 0.0
2017-Nov-14 09:27N 35°38' E 139°46'1 1.3
2017-Nov-14 08:58N 35°37' E 139°46'511.6
2017-Nov-14 08:31N 35°33' E 139°50'612.7
2017-Nov-14 08:00N 35°27' E 139°50'713.9
2017-Nov-14 07:30N 35°21' E 139°45'510.8
2017-Nov-14 07:00N 35°16' E 139°46'611.5
2017-Nov-14 06:30N 35°10' E 139°47'816.2
2017-Nov-14 06:00N 35°02' E 139°44'917.0
2017-Nov-14 05:30N 34°54' E 139°45'1214.7
2017-Nov-14 04:42N 34°52' E 139°59'  
2017-Nov-11 15:53N 34°53' E 140°04'1118.5
2017-Nov-11 15:16N 34°50' E 139°51'518.1
2017-Nov-11 15:00N 34°52' E 139°46'918.6
2017-Nov-11 14:30N 35°01' E 139°42'918.8
2017-Nov-11 14:00N 35°10' E 139°45'713.3
2017-Nov-11 13:30N 35°17' E 139°45'612.1
2017-Nov-11 13:00N 35°22' E 139°42'917.4
2017-Nov-11 12:30N 35°29' E 139°49'611.7
2017-Nov-11 11:58N 35°34' E 139°53'0 0.1
2017-Nov-11 11:22N 35°34' E 139°53'0 0.0
2017-Nov-11 11:01N 35°34' E 139°53'0 0.1
2017-Nov-11 10:25N 35°34' E 139°53'0 0.0
2017-Nov-11 09:19N 35°34' E 139°53'0 0.0
2017-Nov-11 08:55N 35°34' E 139°53'0 0.0
2017-Nov-11 08:25N 35°34' E 139°53'0 0.0
2017-Nov-11 07:55N 35°34' E 139°53'0 0.0
2017-Nov-11 07:25N 35°34' E 139°53'0 0.0
2017-Nov-11 06:22N 35°34' E 139°53'0 0.1
2017-Nov-11 05:59N 35°34' E 139°53'0 0.1
2017-Nov-11 05:28N 35°34' E 139°53'0 0.0
2017-Nov-11 04:59N 35°34' E 139°53'0 0.0
2017-Nov-11 04:23N 35°34' E 139°53'0 0.0
2017-Nov-11 03:56N 35°34' E 139°53'0 0.1
2017-Nov-11 03:28N 35°34' E 139°53'0 0.1
2017-Nov-11 02:58N 35°34' E 139°53'0 0.0
2017-Nov-11 02:29N 35°34' E 139°53'0 0.1
2017-Nov-11 01:59N 35°34' E 139°53'0 0.1
2017-Nov-11 01:28N 35°34' E 139°53'0 0.0
2017-Nov-11 01:00N 35°34' E 139°53'0 0.1
2017-Nov-11 00:28N 35°34' E 139°53'0 0.0
2017-Nov-10 23:56N 35°34' E 139°53'0 0.0
2017-Nov-10 23:29N 35°34' E 139°53'0 0.0
2017-Nov-10 22:58N 35°34' E 139°53'0 0.0
2017-Nov-10 22:30N 35°34' E 139°53'0 0.0
2017-Nov-10 21:54N 35°34' E 139°53'0 0.0
2017-Nov-10 21:30N 35°34' E 139°53'0 0.0
2017-Nov-10 20:55N 35°34' E 139°53'0 0.0
2017-Nov-10 20:27N 35°34' E 139°53'0 0.0
2017-Nov-10 19:55N 35°34' E 139°53'0 0.0
2017-Nov-10 19:27N 35°34' E 139°53'0 0.1
2017-Nov-10 19:00N 35°34' E 139°53'0 0.1
2017-Nov-10 18:25N 35°34' E 139°53'0 0.0
2017-Nov-10 17:58N 35°34' E 139°53'0 0.1
2017-Nov-10 17:29N 35°34' E 139°53'0 0.0
2017-Nov-10 17:00N 35°34' E 139°53'0 0.0
2017-Nov-10 16:30N 35°34' E 139°53'0 0.1
2017-Nov-10 15:55N 35°34' E 139°53'0 0.1
2017-Nov-10 15:16N 35°34' E 139°53'1 3.8
2017-Nov-10 15:00N 35°33' E 139°53'510.4
2017-Nov-10 14:30N 35°36' E 139°47'2 0.4
2017-Nov-10 08:34N 35°38' E 139°46'0 2.2
2017-Nov-10 08:30N 35°37' E 139°46'511.0
2017-Nov-10 08:00N 35°34' E 139°50'714.2
2017-Nov-10 07:30N 35°26' E 139°49'713.9
2017-Nov-10 07:00N 35°21' E 139°45'611.3
2017-Nov-10 06:30N 35°15' E 139°47'815.3
2017-Nov-10 06:00N 35°08' E 139°46'918.7
2017-Nov-10 05:30N 34°59' E 139°43'  
Track history (hours):
 
Tides and Currents Weather Stations Pressure Air Temp Water Temp Dewpoint Dewpoint Depression Visibility Wind Speed Wind Dir Waves Ship Positions

Shin-oh Maru

Last reported at 2017-Nov-17 17:33 UTC. Time now 2017-Nov-19 07:05 UTC.
Position N 34°52' E 140°02'.

Length 161 m; draft 7 m.

Type: Cargo ship. MMSI: 431100859.

Date/timePositionNaut miles runAvg speedWind from/ knotsBaromVisibWave heightAir tempDewpointWater temp
2017-Nov-17 17:33N 34°52' E 140°02'1019.9
2017-Nov-17 17:04N 34°51' E 139°51'220.0
2017-Nov-17 16:59N 34°51' E 139°49'919.7
2017-Nov-17 16:30N 34°59' E 139°42'1020.6
2017-Nov-17 16:00N 35°09' E 139°45'714.4
2017-Nov-17 15:30N 35°16' E 139°46'612.6
2017-Nov-17 15:00N 35°22' E 139°42'917.8
2017-Nov-17 14:30N 35°29' E 139°49'713.9
2017-Nov-17 14:00N 35°36' E 139°47'2 4.8
2017-Nov-17 13:29N 35°38' E 139°46'0 0.0
2017-Nov-17 08:21N 35°38' E 139°46'0 0.7
2017-Nov-17 08:00N 35°37' E 139°46'612.1
2017-Nov-17 07:30N 35°33' E 139°51'714.7
2017-Nov-17 07:01N 35°26' E 139°48'713.3
2017-Nov-17 06:30N 35°20' E 139°44'611.5
2017-Nov-17 06:00N 35°15' E 139°47'815.6
2017-Nov-17 05:30N 35°07' E 139°46'1019.7
2017-Nov-17 05:00N 34°57' E 139°43'  
2017-Nov-14 18:12N 34°54' E 140°05'419.9
2017-Nov-14 18:00N 34°53' E 140°00'1019.1
2017-Nov-14 17:29N 34°52' E 139°48'1019.7
2017-Nov-14 17:00N 35°00' E 139°43'1020.3
2017-Nov-14 16:30N 35°10' E 139°45'713.7
2017-Nov-14 16:00N 35°17' E 139°45'713.6
2017-Nov-14 15:31N 35°23' E 139°42'918.4
2017-Nov-14 15:01N 35°29' E 139°50'714.9
2017-Nov-14 14:30N 35°36' E 139°47'2 0.4
2017-Nov-14 09:37N 35°38' E 139°46'0 0.0
2017-Nov-14 09:27N 35°38' E 139°46'1 1.3
2017-Nov-14 08:58N 35°37' E 139°46'511.6
2017-Nov-14 08:31N 35°33' E 139°50'612.7
2017-Nov-14 08:00N 35°27' E 139°50'713.9
2017-Nov-14 07:30N 35°21' E 139°45'510.8
2017-Nov-14 07:00N 35°16' E 139°46'611.5
2017-Nov-14 06:30N 35°10' E 139°47'816.2
2017-Nov-14 06:00N 35°02' E 139°44'917.0
2017-Nov-14 05:30N 34°54' E 139°45'1214.7
2017-Nov-14 04:42N 34°52' E 139°59'  
2017-Nov-11 15:53N 34°53' E 140°04'1118.5
2017-Nov-11 15:16N 34°50' E 139°51'518.1
2017-Nov-11 15:00N 34°52' E 139°46'918.6
2017-Nov-11 14:30N 35°01' E 139°42'918.8
2017-Nov-11 14:00N 35°10' E 139°45'713.3
2017-Nov-11 13:30N 35°17' E 139°45'612.1
2017-Nov-11 13:00N 35°22' E 139°42'917.4
2017-Nov-11 12:30N 35°29' E 139°49'611.7
2017-Nov-11 11:58N 35°34' E 139°53'0 0.1
2017-Nov-11 11:22N 35°34' E 139°53'0 0.0
2017-Nov-11 11:01N 35°34' E 139°53'0 0.1
2017-Nov-11 10:25N 35°34' E 139°53'0 0.0
2017-Nov-11 09:19N 35°34' E 139°53'0 0.0
2017-Nov-11 08:55N 35°34' E 139°53'0 0.0
2017-Nov-11 08:25N 35°34' E 139°53'0 0.0
2017-Nov-11 07:55N 35°34' E 139°53'0 0.0
2017-Nov-11 07:25N 35°34' E 139°53'0 0.0
2017-Nov-11 06:22N 35°34' E 139°53'0 0.1
2017-Nov-11 05:59N 35°34' E 139°53'0 0.1
2017-Nov-11 05:28N 35°34' E 139°53'0 0.0
2017-Nov-11 04:59N 35°34' E 139°53'0 0.0
2017-Nov-11 04:23N 35°34' E 139°53'0 0.0
2017-Nov-11 03:56N 35°34' E 139°53'0 0.1
2017-Nov-11 03:28N 35°34' E 139°53'0 0.1
2017-Nov-11 02:58N 35°34' E 139°53'0 0.0
2017-Nov-11 02:29N 35°34' E 139°53'0 0.1
2017-Nov-11 01:59N 35°34' E 139°53'0 0.1
2017-Nov-11 01:28N 35°34' E 139°53'0 0.0
2017-Nov-11 01:00N 35°34' E 139°53'0 0.1
2017-Nov-11 00:28N 35°34' E 139°53'0 0.0
2017-Nov-10 23:56N 35°34' E 139°53'0 0.0
2017-Nov-10 23:29N 35°34' E 139°53'0 0.0
2017-Nov-10 22:58N 35°34' E 139°53'0 0.0
2017-Nov-10 22:30N 35°34' E 139°53'0 0.0
2017-Nov-10 21:54N 35°34' E 139°53'0 0.0
2017-Nov-10 21:30N 35°34' E 139°53'0 0.0
2017-Nov-10 20:55N 35°34' E 139°53'0 0.0
2017-Nov-10 20:27N 35°34' E 139°53'0 0.0
2017-Nov-10 19:55N 35°34' E 139°53'0 0.0
2017-Nov-10 19:27N 35°34' E 139°53'0 0.1
2017-Nov-10 19:00N 35°34' E 139°53'0 0.1
2017-Nov-10 18:25N 35°34' E 139°53'0 0.0
2017-Nov-10 17:58N 35°34' E 139°53'0 0.1
2017-Nov-10 17:29N 35°34' E 139°53'0 0.0
2017-Nov-10 17:00N 35°34' E 139°53'0 0.0
2017-Nov-10 16:30N 35°34' E 139°53'0 0.1
2017-Nov-10 15:55N 35°34' E 139°53'0 0.1
2017-Nov-10 15:16N 35°34' E 139°53'1 3.8
2017-Nov-10 15:00N 35°33' E 139°53'510.4
2017-Nov-10 14:30N 35°36' E 139°47'2 0.4
2017-Nov-10 08:34N 35°38' E 139°46'0 2.2
2017-Nov-10 08:30N 35°37' E 139°46'511.0
2017-Nov-10 08:00N 35°34' E 139°50'714.2
2017-Nov-10 07:30N 35°26' E 139°49'713.9
2017-Nov-10 07:00N 35°21' E 139°45'611.3
2017-Nov-10 06:30N 35°15' E 139°47'815.3
2017-Nov-10 06:00N 35°08' E 139°46'918.7
2017-Nov-10 05:30N 34°59' E 139°43'  

Dump ship's entire track history